sensor_id;sensor_type;location;lat;lon;timestamp;P1;durP1;ratioP1;P2;durP2;ratioP2
8610;SDS011;4343;53.648;10.098;2024-01-11T00:02:21;18.57;;;15.27;;
8610;SDS011;4343;53.648;10.098;2024-01-11T00:04:46;18.97;;;15.13;;
8610;SDS011;4343;53.648;10.098;2024-01-11T00:07:12;20.17;;;15.63;;
8610;SDS011;4343;53.648;10.098;2024-01-11T00:09:46;20.67;;;15.57;;
8610;SDS011;4343;53.648;10.098;2024-01-11T00:12:12;22.60;;;16.93;;
8610;SDS011;4343;53.648;10.098;2024-01-11T00:14:37;21.63;;;16.17;;
8610;SDS011;4343;53.648;10.098;2024-01-11T00:17:03;19.40;;;15.00;;
8610;SDS011;4343;53.648;10.098;2024-01-11T00:19:29;18.30;;;15.17;;
8610;SDS011;4343;53.648;10.098;2024-01-11T00:21:54;19.10;;;15.23;;
8610;SDS011;4343;53.648;10.098;2024-01-11T00:24:20;19.13;;;16.13;;
8610;SDS011;4343;53.648;10.098;2024-01-11T00:26:45;21.23;;;15.87;;
8610;SDS011;4343;53.648;10.098;2024-01-11T00:29:11;19.73;;;15.40;;
8610;SDS011;4343;53.648;10.098;2024-01-11T00:31:36;19.20;;;14.43;;
8610;SDS011;4343;53.648;10.098;2024-01-11T00:34:03;21.83;;;16.10;;
8610;SDS011;4343;53.648;10.098;2024-01-11T00:36:29;21.80;;;16.47;;
8610;SDS011;4343;53.648;10.098;2024-01-11T00:38:54;21.57;;;15.97;;
8610;SDS011;4343;53.648;10.098;2024-01-11T00:41:20;19.37;;;14.93;;
8610;SDS011;4343;53.648;10.098;2024-01-11T00:43:45;18.53;;;14.57;;
8610;SDS011;4343;53.648;10.098;2024-01-11T00:46:11;17.10;;;13.77;;
8610;SDS011;4343;53.648;10.098;2024-01-11T00:48:37;18.57;;;14.90;;
8610;SDS011;4343;53.648;10.098;2024-01-11T00:51:05;18.77;;;14.37;;
8610;SDS011;4343;53.648;10.098;2024-01-11T00:53:31;21.00;;;15.17;;
8610;SDS011;4343;53.648;10.098;2024-01-11T00:55:58;19.40;;;14.97;;
8610;SDS011;4343;53.648;10.098;2024-01-11T00:58:24;21.47;;;16.23;;
8610;SDS011;4343;53.648;10.098;2024-01-11T01:00:49;20.90;;;16.00;;
8610;SDS011;4343;53.648;10.098;2024-01-11T01:03:15;17.23;;;14.17;;
8610;SDS011;4343;53.648;10.098;2024-01-11T01:05:41;18.07;;;14.97;;
8610;SDS011;4343;53.648;10.098;2024-01-11T01:08:07;19.27;;;15.33;;
8610;SDS011;4343;53.648;10.098;2024-01-11T01:10:32;17.37;;;13.97;;
8610;SDS011;4343;53.648;10.098;2024-01-11T01:12:58;18.53;;;14.87;;
8610;SDS011;4343;53.648;10.098;2024-01-11T01:15:23;20.30;;;15.50;;
8610;SDS011;4343;53.648;10.098;2024-01-11T01:17:49;20.07;;;16.63;;
8610;SDS011;4343;53.648;10.098;2024-01-11T01:20:14;20.70;;;14.93;;
8610;SDS011;4343;53.648;10.098;2024-01-11T01:22:40;20.23;;;15.63;;
8610;SDS011;4343;53.648;10.098;2024-01-11T01:25:06;19.97;;;15.90;;
8610;SDS011;4343;53.648;10.098;2024-01-11T01:27:31;19.67;;;15.23;;
8610;SDS011;4343;53.648;10.098;2024-01-11T01:29:57;20.30;;;15.97;;
8610;SDS011;4343;53.648;10.098;2024-01-11T01:32:22;18.67;;;15.20;;
8610;SDS011;4343;53.648;10.098;2024-01-11T01:34:48;19.77;;;15.20;;
8610;SDS011;4343;53.648;10.098;2024-01-11T01:37:13;20.13;;;15.50;;
8610;SDS011;4343;53.648;10.098;2024-01-11T01:39:39;19.40;;;15.13;;
8610;SDS011;4343;53.648;10.098;2024-01-11T01:42:05;20.00;;;15.50;;
8610;SDS011;4343;53.648;10.098;2024-01-11T01:44:31;22.30;;;16.50;;
8610;SDS011;4343;53.648;10.098;2024-01-11T01:46:57;21.63;;;16.23;;
8610;SDS011;4343;53.648;10.098;2024-01-11T01:49:23;18.70;;;15.00;;
8610;SDS011;4343;53.648;10.098;2024-01-11T01:51:49;22.43;;;16.97;;
8610;SDS011;4343;53.648;10.098;2024-01-11T01:54:17;22.13;;;16.60;;
8610;SDS011;4343;53.648;10.098;2024-01-11T01:56:44;20.10;;;15.30;;
8610;SDS011;4343;53.648;10.098;2024-01-11T01:59:10;19.70;;;15.63;;
8610;SDS011;4343;53.648;10.098;2024-01-11T02:01:36;23.37;;;17.90;;
8610;SDS011;4343;53.648;10.098;2024-01-11T02:04:02;23.47;;;17.80;;
8610;SDS011;4343;53.648;10.098;2024-01-11T02:06:27;23.33;;;17.40;;
8610;SDS011;4343;53.648;10.098;2024-01-11T02:08:55;22.73;;;17.20;;
8610;SDS011;4343;53.648;10.098;2024-01-11T02:11:21;23.20;;;17.03;;
8610;SDS011;4343;53.648;10.098;2024-01-11T02:13:49;23.73;;;18.40;;
8610;SDS011;4343;53.648;10.098;2024-01-11T02:16:15;23.67;;;17.93;;
8610;SDS011;4343;53.648;10.098;2024-01-11T02:18:41;26.80;;;18.60;;
8610;SDS011;4343;53.648;10.098;2024-01-11T02:21:06;24.97;;;18.83;;
8610;SDS011;4343;53.648;10.098;2024-01-11T02:23:36;23.43;;;17.30;;
8610;SDS011;4343;53.648;10.098;2024-01-11T02:26:07;26.00;;;18.57;;
8610;SDS011;4343;53.648;10.098;2024-01-11T02:28:33;25.10;;;18.00;;
8610;SDS011;4343;53.648;10.098;2024-01-11T02:30:58;23.90;;;17.57;;
8610;SDS011;4343;53.648;10.098;2024-01-11T02:33:24;24.50;;;17.30;;
8610;SDS011;4343;53.648;10.098;2024-01-11T02:35:49;25.57;;;19.13;;
8610;SDS011;4343;53.648;10.098;2024-01-11T02:38:16;25.47;;;17.80;;
8610;SDS011;4343;53.648;10.098;2024-01-11T02:40:41;23.67;;;16.97;;
8610;SDS011;4343;53.648;10.098;2024-01-11T02:43:09;26.33;;;18.23;;
8610;SDS011;4343;53.648;10.098;2024-01-11T02:45:35;22.37;;;16.67;;
8610;SDS011;4343;53.648;10.098;2024-01-11T02:48:01;24.87;;;17.40;;
8610;SDS011;4343;53.648;10.098;2024-01-11T02:50:26;25.17;;;18.53;;
8610;SDS011;4343;53.648;10.098;2024-01-11T02:52:52;24.23;;;17.33;;
8610;SDS011;4343;53.648;10.098;2024-01-11T02:55:18;25.03;;;18.53;;
8610;SDS011;4343;53.648;10.098;2024-01-11T02:57:43;27.80;;;20.13;;
8610;SDS011;4343;53.648;10.098;2024-01-11T03:00:09;24.03;;;17.83;;
8610;SDS011;4343;53.648;10.098;2024-01-11T03:02:36;25.13;;;18.00;;
8610;SDS011;4343;53.648;10.098;2024-01-11T03:05:03;25.90;;;18.57;;
8610;SDS011;4343;53.648;10.098;2024-01-11T03:07:29;25.37;;;17.67;;
8610;SDS011;4343;53.648;10.098;2024-01-11T03:09:55;22.77;;;16.67;;
8610;SDS011;4343;53.648;10.098;2024-01-11T03:12:21;23.20;;;17.00;;
8610;SDS011;4343;53.648;10.098;2024-01-11T03:14:47;22.67;;;16.57;;
8610;SDS011;4343;53.648;10.098;2024-01-11T03:17:13;21.73;;;17.00;;
8610;SDS011;4343;53.648;10.098;2024-01-11T03:19:39;22.10;;;16.07;;
8610;SDS011;4343;53.648;10.098;2024-01-11T03:22:05;21.50;;;16.40;;
8610;SDS011;4343;53.648;10.098;2024-01-11T03:24:31;20.10;;;15.07;;
8610;SDS011;4343;53.648;10.098;2024-01-11T03:26:57;22.90;;;16.57;;
8610;SDS011;4343;53.648;10.098;2024-01-11T03:29:23;18.07;;;14.10;;
8610;SDS011;4343;53.648;10.098;2024-01-11T03:31:48;19.00;;;14.87;;
8610;SDS011;4343;53.648;10.098;2024-01-11T03:34:14;20.00;;;15.53;;
8610;SDS011;4343;53.648;10.098;2024-01-11T03:36:39;21.80;;;15.93;;
8610;SDS011;4343;53.648;10.098;2024-01-11T03:39:05;19.77;;;14.67;;
8610;SDS011;4343;53.648;10.098;2024-01-11T03:41:31;19.67;;;15.10;;
8610;SDS011;4343;53.648;10.098;2024-01-11T03:43:56;19.73;;;15.10;;
8610;SDS011;4343;53.648;10.098;2024-01-11T03:46:22;21.27;;;15.90;;
8610;SDS011;4343;53.648;10.098;2024-01-11T03:48:47;18.57;;;13.83;;
8610;SDS011;4343;53.648;10.098;2024-01-11T03:51:13;18.40;;;14.33;;
8610;SDS011;4343;53.648;10.098;2024-01-11T03:53:39;19.27;;;14.67;;
8610;SDS011;4343;53.648;10.098;2024-01-11T03:56:04;20.63;;;15.40;;
8610;SDS011;4343;53.648;10.098;2024-01-11T03:58:30;18.87;;;14.83;;
8610;SDS011;4343;53.648;10.098;2024-01-11T04:00:55;17.70;;;13.97;;
8610;SDS011;4343;53.648;10.098;2024-01-11T04:03:21;18.13;;;14.07;;
8610;SDS011;4343;53.648;10.098;2024-01-11T04:05:46;16.60;;;13.43;;
8610;SDS011;4343;53.648;10.098;2024-01-11T04:08:13;19.10;;;14.23;;
8610;SDS011;4343;53.648;10.098;2024-01-11T04:10:39;17.00;;;13.73;;
8610;SDS011;4343;53.648;10.098;2024-01-11T04:13:06;18.80;;;14.13;;
8610;SDS011;4343;53.648;10.098;2024-01-11T04:15:32;19.17;;;15.30;;
8610;SDS011;4343;53.648;10.098;2024-01-11T04:17:57;18.20;;;14.80;;
8610;SDS011;4343;53.648;10.098;2024-01-11T04:20:23;17.17;;;13.87;;
8610;SDS011;4343;53.648;10.098;2024-01-11T04:22:49;18.37;;;14.33;;
8610;SDS011;4343;53.648;10.098;2024-01-11T04:25:15;17.47;;;13.77;;
8610;SDS011;4343;53.648;10.098;2024-01-11T04:27:40;18.27;;;15.10;;
8610;SDS011;4343;53.648;10.098;2024-01-11T04:30:06;16.63;;;14.27;;
8610;SDS011;4343;53.648;10.098;2024-01-11T04:32:32;19.30;;;14.50;;
8610;SDS011;4343;53.648;10.098;2024-01-11T04:34:57;20.03;;;15.77;;
8610;SDS011;4343;53.648;10.098;2024-01-11T04:37:23;20.07;;;15.23;;
8610;SDS011;4343;53.648;10.098;2024-01-11T04:39:48;19.27;;;15.17;;
8610;SDS011;4343;53.648;10.098;2024-01-11T04:42:14;19.40;;;15.23;;
8610;SDS011;4343;53.648;10.098;2024-01-11T04:44:39;23.00;;;16.47;;
8610;SDS011;4343;53.648;10.098;2024-01-11T04:47:05;19.20;;;15.00;;
8610;SDS011;4343;53.648;10.098;2024-01-11T04:49:30;21.20;;;16.17;;
8610;SDS011;4343;53.648;10.098;2024-01-11T04:51:56;20.33;;;16.27;;
8610;SDS011;4343;53.648;10.098;2024-01-11T04:54:21;20.17;;;15.47;;
8610;SDS011;4343;53.648;10.098;2024-01-11T04:56:47;20.47;;;15.83;;
8610;SDS011;4343;53.648;10.098;2024-01-11T04:59:13;22.03;;;16.63;;
8610;SDS011;4343;53.648;10.098;2024-01-11T05:01:38;19.87;;;15.40;;
8610;SDS011;4343;53.648;10.098;2024-01-11T05:04:06;21.30;;;16.13;;
8610;SDS011;4343;53.648;10.098;2024-01-11T05:06:31;22.83;;;16.87;;
8610;SDS011;4343;53.648;10.098;2024-01-11T05:08:57;23.37;;;17.03;;
8610;SDS011;4343;53.648;10.098;2024-01-11T05:11:22;21.93;;;16.33;;
8610;SDS011;4343;53.648;10.098;2024-01-11T05:13:49;23.37;;;17.00;;
8610;SDS011;4343;53.648;10.098;2024-01-11T05:18:51;21.90;;;16.50;;
8610;SDS011;4343;53.648;10.098;2024-01-11T05:21:18;21.07;;;16.37;;
8610;SDS011;4343;53.648;10.098;2024-01-11T05:23:44;19.60;;;15.10;;
8610;SDS011;4343;53.648;10.098;2024-01-11T05:26:10;20.40;;;15.10;;
8610;SDS011;4343;53.648;10.098;2024-01-11T05:28:38;19.17;;;15.07;;
8610;SDS011;4343;53.648;10.098;2024-01-11T05:31:08;21.77;;;16.47;;
8610;SDS011;4343;53.648;10.098;2024-01-11T05:33:34;19.30;;;14.20;;
8610;SDS011;4343;53.648;10.098;2024-01-11T05:36:00;21.73;;;15.73;;
8610;SDS011;4343;53.648;10.098;2024-01-11T05:38:26;23.30;;;16.70;;
8610;SDS011;4343;53.648;10.098;2024-01-11T05:40:51;19.73;;;15.60;;
8610;SDS011;4343;53.648;10.098;2024-01-11T05:43:17;23.17;;;15.73;;
8610;SDS011;4343;53.648;10.098;2024-01-11T05:45:42;21.70;;;15.57;;
8610;SDS011;4343;53.648;10.098;2024-01-11T05:48:09;19.30;;;14.33;;
8610;SDS011;4343;53.648;10.098;2024-01-11T05:50:35;20.60;;;14.83;;
8610;SDS011;4343;53.648;10.098;2024-01-11T05:53:01;21.43;;;15.60;;
8610;SDS011;4343;53.648;10.098;2024-01-11T05:55:26;23.23;;;16.53;;
8610;SDS011;4343;53.648;10.098;2024-01-11T05:57:52;21.87;;;16.10;;
8610;SDS011;4343;53.648;10.098;2024-01-11T06:00:17;22.13;;;15.10;;
8610;SDS011;4343;53.648;10.098;2024-01-11T06:02:43;22.40;;;15.17;;
8610;SDS011;4343;53.648;10.098;2024-01-11T06:05:09;19.33;;;14.03;;
8610;SDS011;4343;53.648;10.098;2024-01-11T06:07:35;17.93;;;13.13;;
8610;SDS011;4343;53.648;10.098;2024-01-11T06:10:00;18.77;;;13.63;;
8610;SDS011;4343;53.648;10.098;2024-01-11T06:12:27;17.60;;;12.77;;
8610;SDS011;4343;53.648;10.098;2024-01-11T06:14:53;17.80;;;13.10;;
8610;SDS011;4343;53.648;10.098;2024-01-11T06:17:19;17.93;;;12.50;;
8610;SDS011;4343;53.648;10.098;2024-01-11T06:19:44;18.37;;;12.53;;
8610;SDS011;4343;53.648;10.098;2024-01-11T06:22:10;18.57;;;12.17;;
8610;SDS011;4343;53.648;10.098;2024-01-11T06:24:35;17.80;;;12.43;;
8610;SDS011;4343;53.648;10.098;2024-01-11T06:27:01;16.53;;;11.33;;
8610;SDS011;4343;53.648;10.098;2024-01-11T06:29:27;16.97;;;11.43;;
8610;SDS011;4343;53.648;10.098;2024-01-11T06:31:52;14.93;;;10.43;;
8610;SDS011;4343;53.648;10.098;2024-01-11T06:34:18;15.10;;;10.43;;
8610;SDS011;4343;53.648;10.098;2024-01-11T06:36:43;14.27;;;10.37;;
8610;SDS011;4343;53.648;10.098;2024-01-11T06:39:09;12.03;;;9.30;;
8610;SDS011;4343;53.648;10.098;2024-01-11T06:41:35;11.43;;;8.23;;
8610;SDS011;4343;53.648;10.098;2024-01-11T06:44:00;10.93;;;8.67;;
8610;SDS011;4343;53.648;10.098;2024-01-11T06:46:26;12.47;;;8.50;;
8610;SDS011;4343;53.648;10.098;2024-01-11T06:48:52;12.33;;;8.77;;
8610;SDS011;4343;53.648;10.098;2024-01-11T06:51:20;11.13;;;8.40;;
8610;SDS011;4343;53.648;10.098;2024-01-11T06:53:46;12.57;;;8.97;;
8610;SDS011;4343;53.648;10.098;2024-01-11T06:56:15;13.50;;;8.43;;
8610;SDS011;4343;53.648;10.098;2024-01-11T06:58:42;12.47;;;8.70;;
8610;SDS011;4343;53.648;10.098;2024-01-11T07:01:09;11.90;;;8.30;;
8610;SDS011;4343;53.648;10.098;2024-01-11T07:03:34;14.00;;;8.83;;
8610;SDS011;4343;53.648;10.098;2024-01-11T07:06:00;12.33;;;8.90;;
8610;SDS011;4343;53.648;10.098;2024-01-11T07:08:25;14.03;;;9.50;;
8610;SDS011;4343;53.648;10.098;2024-01-11T07:10:51;13.40;;;8.83;;
8610;SDS011;4343;53.648;10.098;2024-01-11T07:13:16;14.93;;;9.70;;
8610;SDS011;4343;53.648;10.098;2024-01-11T07:15:42;15.63;;;9.70;;
8610;SDS011;4343;53.648;10.098;2024-01-11T07:18:08;14.93;;;9.27;;
8610;SDS011;4343;53.648;10.098;2024-01-11T07:20:34;13.77;;;9.47;;
8610;SDS011;4343;53.648;10.098;2024-01-11T07:22:59;15.60;;;9.63;;
8610;SDS011;4343;53.648;10.098;2024-01-11T07:25:25;14.10;;;9.07;;
8610;SDS011;4343;53.648;10.098;2024-01-11T07:27:51;15.17;;;9.17;;
8610;SDS011;4343;53.648;10.098;2024-01-11T07:30:16;12.90;;;8.87;;
8610;SDS011;4343;53.648;10.098;2024-01-11T07:32:45;13.63;;;9.47;;
8610;SDS011;4343;53.648;10.098;2024-01-11T07:35:11;16.47;;;9.87;;
8610;SDS011;4343;53.648;10.098;2024-01-11T07:37:38;14.83;;;9.57;;
8610;SDS011;4343;53.648;10.098;2024-01-11T07:40:04;18.67;;;11.03;;
8610;SDS011;4343;53.648;10.098;2024-01-11T07:42:36;15.43;;;9.27;;
8610;SDS011;4343;53.648;10.098;2024-01-11T07:45:03;13.40;;;8.93;;
8610;SDS011;4343;53.648;10.098;2024-01-11T07:47:30;14.67;;;10.43;;
8610;SDS011;4343;53.648;10.098;2024-01-11T07:49:56;14.47;;;10.23;;
8610;SDS011;4343;53.648;10.098;2024-01-11T07:52:21;16.27;;;10.67;;
8610;SDS011;4343;53.648;10.098;2024-01-11T07:54:47;16.63;;;10.70;;
8610;SDS011;4343;53.648;10.098;2024-01-11T07:57:12;17.00;;;10.10;;
8610;SDS011;4343;53.648;10.098;2024-01-11T07:59:38;17.13;;;10.50;;
8610;SDS011;4343;53.648;10.098;2024-01-11T08:02:04;15.00;;;9.63;;
8610;SDS011;4343;53.648;10.098;2024-01-11T08:04:31;15.73;;;9.50;;
8610;SDS011;4343;53.648;10.098;2024-01-11T08:06:56;14.33;;;9.00;;
8610;SDS011;4343;53.648;10.098;2024-01-11T08:09:24;13.27;;;8.90;;
8610;SDS011;4343;53.648;10.098;2024-01-11T08:11:53;13.90;;;8.80;;
8610;SDS011;4343;53.648;10.098;2024-01-11T08:14:22;14.30;;;8.57;;
8610;SDS011;4343;53.648;10.098;2024-01-11T08:16:47;13.87;;;8.57;;
8610;SDS011;4343;53.648;10.098;2024-01-11T08:19:13;13.83;;;9.07;;
8610;SDS011;4343;53.648;10.098;2024-01-11T08:21:39;12.43;;;8.23;;
8610;SDS011;4343;53.648;10.098;2024-01-11T08:24:06;12.20;;;8.23;;
8610;SDS011;4343;53.648;10.098;2024-01-11T08:26:32;11.10;;;7.83;;
8610;SDS011;4343;53.648;10.098;2024-01-11T08:28:57;12.17;;;8.47;;
8610;SDS011;4343;53.648;10.098;2024-01-11T08:31:23;11.80;;;7.97;;
8610;SDS011;4343;53.648;10.098;2024-01-11T08:33:49;11.37;;;8.13;;
8610;SDS011;4343;53.648;10.098;2024-01-11T08:36:15;10.87;;;7.60;;
8610;SDS011;4343;53.648;10.098;2024-01-11T08:38:41;14.30;;;9.00;;
8610;SDS011;4343;53.648;10.098;2024-01-11T08:41:07;11.33;;;8.20;;
8610;SDS011;4343;53.648;10.098;2024-01-11T08:43:32;14.33;;;8.70;;
8610;SDS011;4343;53.648;10.098;2024-01-11T08:45:58;12.13;;;8.10;;
8610;SDS011;4343;53.648;10.098;2024-01-11T08:48:24;10.93;;;7.40;;
8610;SDS011;4343;53.648;10.098;2024-01-11T08:50:50;14.10;;;8.23;;
8610;SDS011;4343;53.648;10.098;2024-01-11T08:53:15;14.37;;;8.10;;
8610;SDS011;4343;53.648;10.098;2024-01-11T08:55:41;12.63;;;7.93;;
8610;SDS011;4343;53.648;10.098;2024-01-11T08:58:07;13.23;;;8.57;;
8610;SDS011;4343;53.648;10.098;2024-01-11T09:00:33;13.27;;;8.13;;
8610;SDS011;4343;53.648;10.098;2024-01-11T09:02:59;13.77;;;8.60;;
8610;SDS011;4343;53.648;10.098;2024-01-11T09:05:24;12.73;;;7.93;;
8610;SDS011;4343;53.648;10.098;2024-01-11T09:07:50;11.30;;;7.43;;
8610;SDS011;4343;53.648;10.098;2024-01-11T09:10:15;14.27;;;8.00;;
8610;SDS011;4343;53.648;10.098;2024-01-11T09:12:41;12.37;;;7.97;;
8610;SDS011;4343;53.648;10.098;2024-01-11T09:15:07;11.13;;;7.67;;
8610;SDS011;4343;53.648;10.098;2024-01-11T09:17:32;11.07;;;7.40;;
8610;SDS011;4343;53.648;10.098;2024-01-11T09:19:58;10.93;;;7.43;;
8610;SDS011;4343;53.648;10.098;2024-01-11T09:22:23;12.43;;;7.63;;
8610;SDS011;4343;53.648;10.098;2024-01-11T09:24:49;12.40;;;7.17;;
8610;SDS011;4343;53.648;10.098;2024-01-11T09:27:15;9.93;;;6.83;;
8610;SDS011;4343;53.648;10.098;2024-01-11T09:29:44;11.13;;;7.33;;
8610;SDS011;4343;53.648;10.098;2024-01-11T09:32:10;11.17;;;7.40;;
8610;SDS011;4343;53.648;10.098;2024-01-11T09:34:36;12.60;;;7.73;;
8610;SDS011;4343;53.648;10.098;2024-01-11T09:37:01;10.63;;;7.43;;
8610;SDS011;4343;53.648;10.098;2024-01-11T09:39:28;10.30;;;7.47;;
8610;SDS011;4343;53.648;10.098;2024-01-11T09:42:12;11.63;;;7.37;;
8610;SDS011;4343;53.648;10.098;2024-01-11T09:44:38;16.23;;;9.00;;
8610;SDS011;4343;53.648;10.098;2024-01-11T09:47:05;16.33;;;9.80;;
8610;SDS011;4343;53.648;10.098;2024-01-11T09:49:33;16.83;;;9.33;;
8610;SDS011;4343;53.648;10.098;2024-01-11T09:52:00;16.87;;;8.93;;
8610;SDS011;4343;53.648;10.098;2024-01-11T09:54:28;15.63;;;9.23;;
8610;SDS011;4343;53.648;10.098;2024-01-11T09:56:54;17.93;;;10.10;;
8610;SDS011;4343;53.648;10.098;2024-01-11T09:59:22;16.87;;;10.33;;
8610;SDS011;4343;53.648;10.098;2024-01-11T10:01:49;16.90;;;9.97;;
8610;SDS011;4343;53.648;10.098;2024-01-11T10:04:16;19.53;;;10.20;;
8610;SDS011;4343;53.648;10.098;2024-01-11T10:06:42;20.77;;;10.37;;
8610;SDS011;4343;53.648;10.098;2024-01-11T10:09:08;18.20;;;10.33;;
8610;SDS011;4343;53.648;10.098;2024-01-11T10:11:34;15.93;;;9.87;;
8610;SDS011;4343;53.648;10.098;2024-01-11T10:14:00;19.13;;;9.77;;
8610;SDS011;4343;53.648;10.098;2024-01-11T10:16:27;17.00;;;10.43;;
8610;SDS011;4343;53.648;10.098;2024-01-11T10:18:54;23.57;;;12.27;;
8610;SDS011;4343;53.648;10.098;2024-01-11T10:21:20;19.40;;;10.83;;
8610;SDS011;4343;53.648;10.098;2024-01-11T10:23:46;16.27;;;9.70;;
8610;SDS011;4343;53.648;10.098;2024-01-11T10:26:16;18.43;;;10.63;;
8610;SDS011;4343;53.648;10.098;2024-01-11T10:28:46;18.90;;;11.37;;
8610;SDS011;4343;53.648;10.098;2024-01-11T10:31:12;20.30;;;11.53;;
8610;SDS011;4343;53.648;10.098;2024-01-11T10:33:40;22.13;;;11.63;;
8610;SDS011;4343;53.648;10.098;2024-01-11T10:36:05;23.03;;;11.03;;
8610;SDS011;4343;53.648;10.098;2024-01-11T10:38:34;19.27;;;10.50;;
8610;SDS011;4343;53.648;10.098;2024-01-11T10:41:01;16.50;;;9.53;;
8610;SDS011;4343;53.648;10.098;2024-01-11T10:43:31;19.40;;;9.73;;
8610;SDS011;4343;53.648;10.098;2024-01-11T10:45:59;17.23;;;10.17;;
8610;SDS011;4343;53.648;10.098;2024-01-11T10:48:26;18.63;;;8.67;;
8610;SDS011;4343;53.648;10.098;2024-01-11T10:50:58;18.17;;;9.47;;
8610;SDS011;4343;53.648;10.098;2024-01-11T10:53:42;17.40;;;9.83;;
8610;SDS011;4343;53.648;10.098;2024-01-11T10:56:10;15.63;;;9.23;;
8610;SDS011;4343;53.648;10.098;2024-01-11T10:58:41;15.63;;;9.53;;
8610;SDS011;4343;53.648;10.098;2024-01-11T11:01:08;18.03;;;9.57;;
8610;SDS011;4343;53.648;10.098;2024-01-11T11:03:35;15.30;;;8.23;;
8610;SDS011;4343;53.648;10.098;2024-01-11T11:06:03;16.60;;;9.00;;
8610;SDS011;4343;53.648;10.098;2024-01-11T11:08:30;15.53;;;8.60;;
8610;SDS011;4343;53.648;10.098;2024-01-11T11:10:57;18.43;;;9.13;;
8610;SDS011;4343;53.648;10.098;2024-01-11T11:13:23;14.83;;;8.90;;
8610;SDS011;4343;53.648;10.098;2024-01-11T11:15:50;16.73;;;9.47;;
8610;SDS011;4343;53.648;10.098;2024-01-11T11:18:16;14.17;;;8.60;;
8610;SDS011;4343;53.648;10.098;2024-01-11T11:20:43;15.63;;;9.13;;
8610;SDS011;4343;53.648;10.098;2024-01-11T11:23:10;15.37;;;8.90;;
8610;SDS011;4343;53.648;10.098;2024-01-11T11:25:37;19.33;;;9.83;;
8610;SDS011;4343;53.648;10.098;2024-01-11T11:28:05;15.33;;;8.90;;
8610;SDS011;4343;53.648;10.098;2024-01-11T11:30:38;14.60;;;9.00;;
8610;SDS011;4343;53.648;10.098;2024-01-11T11:33:21;15.87;;;9.80;;
8610;SDS011;4343;53.648;10.098;2024-01-11T11:35:51;17.63;;;9.07;;
8610;SDS011;4343;53.648;10.098;2024-01-11T11:38:26;15.07;;;9.30;;
8610;SDS011;4343;53.648;10.098;2024-01-11T11:40:58;17.17;;;9.47;;
8610;SDS011;4343;53.648;10.098;2024-01-11T11:43:26;15.30;;;8.93;;
8610;SDS011;4343;53.648;10.098;2024-01-11T11:45:53;17.20;;;9.17;;
8610;SDS011;4343;53.648;10.098;2024-01-11T11:51:01;15.43;;;9.20;;
8610;SDS011;4343;53.648;10.098;2024-01-11T11:53:37;11.67;;;7.80;;
8610;SDS011;4343;53.648;10.098;2024-01-11T11:56:04;14.03;;;8.30;;
8610;SDS011;4343;53.648;10.098;2024-01-11T11:58:31;16.77;;;8.87;;
8610;SDS011;4343;53.648;10.098;2024-01-11T12:00:58;17.97;;;9.83;;
8610;SDS011;4343;53.648;10.098;2024-01-11T12:03:31;15.03;;;8.90;;
8610;SDS011;4343;53.648;10.098;2024-01-11T12:05:58;16.93;;;9.57;;
8610;SDS011;4343;53.648;10.098;2024-01-11T12:08:24;18.77;;;9.10;;
8610;SDS011;4343;53.648;10.098;2024-01-11T12:10:51;17.47;;;9.67;;
8610;SDS011;4343;53.648;10.098;2024-01-11T12:13:17;16.57;;;9.50;;
8610;SDS011;4343;53.648;10.098;2024-01-11T12:15:43;15.63;;;9.63;;
8610;SDS011;4343;53.648;10.098;2024-01-11T12:18:08;18.70;;;9.97;;
8610;SDS011;4343;53.648;10.098;2024-01-11T12:20:34;16.43;;;10.30;;
8610;SDS011;4343;53.648;10.098;2024-01-11T12:23:00;15.77;;;9.37;;
8610;SDS011;4343;53.648;10.098;2024-01-11T12:25:27;17.30;;;9.47;;
8610;SDS011;4343;53.648;10.098;2024-01-11T12:27:53;18.60;;;9.40;;
8610;SDS011;4343;53.648;10.098;2024-01-11T12:30:21;19.70;;;10.43;;
8610;SDS011;4343;53.648;10.098;2024-01-11T12:32:48;19.97;;;11.20;;
8610;SDS011;4343;53.648;10.098;2024-01-11T12:35:14;16.17;;;10.10;;
8610;SDS011;4343;53.648;10.098;2024-01-11T12:37:41;16.07;;;9.53;;
8610;SDS011;4343;53.648;10.098;2024-01-11T12:40:17;18.33;;;10.60;;
8610;SDS011;4343;53.648;10.098;2024-01-11T12:42:42;17.07;;;10.47;;
8610;SDS011;4343;53.648;10.098;2024-01-11T12:45:08;21.43;;;11.63;;
8610;SDS011;4343;53.648;10.098;2024-01-11T12:47:34;18.60;;;10.93;;
8610;SDS011;4343;53.648;10.098;2024-01-11T12:49:59;20.57;;;11.33;;
8610;SDS011;4343;53.648;10.098;2024-01-11T12:52:25;18.67;;;11.70;;
8610;SDS011;4343;53.648;10.098;2024-01-11T12:54:52;21.93;;;13.00;;
8610;SDS011;4343;53.648;10.098;2024-01-11T12:57:18;21.07;;;11.33;;
8610;SDS011;4343;53.648;10.098;2024-01-11T12:59:44;21.50;;;11.67;;
8610;SDS011;4343;53.648;10.098;2024-01-11T13:02:10;21.70;;;12.17;;
8610;SDS011;4343;53.648;10.098;2024-01-11T13:04:39;22.63;;;12.53;;
8610;SDS011;4343;53.648;10.098;2024-01-11T13:07:05;20.90;;;12.43;;
8610;SDS011;4343;53.648;10.098;2024-01-11T13:09:32;22.10;;;12.40;;
8610;SDS011;4343;53.648;10.098;2024-01-11T13:11:58;21.30;;;12.27;;
8610;SDS011;4343;53.648;10.098;2024-01-11T13:14:24;20.03;;;12.23;;
8610;SDS011;4343;53.648;10.098;2024-01-11T13:16:49;19.00;;;11.93;;
8610;SDS011;4343;53.648;10.098;2024-01-11T13:19:15;21.87;;;12.50;;
8610;SDS011;4343;53.648;10.098;2024-01-11T13:21:40;20.20;;;12.33;;
8610;SDS011;4343;53.648;10.098;2024-01-11T13:24:06;22.87;;;13.37;;
8610;SDS011;4343;53.648;10.098;2024-01-11T13:26:35;22.60;;;13.13;;
8610;SDS011;4343;53.648;10.098;2024-01-11T13:29:04;25.27;;;13.77;;
8610;SDS011;4343;53.648;10.098;2024-01-11T13:31:30;23.53;;;12.83;;
8610;SDS011;4343;53.648;10.098;2024-01-11T13:33:56;20.90;;;12.27;;
8610;SDS011;4343;53.648;10.098;2024-01-11T13:36:22;23.13;;;13.30;;
8610;SDS011;4343;53.648;10.098;2024-01-11T13:38:48;18.67;;;11.27;;
8610;SDS011;4343;53.648;10.098;2024-01-11T13:41:16;22.60;;;13.03;;
8610;SDS011;4343;53.648;10.098;2024-01-11T13:43:42;22.30;;;12.93;;
8610;SDS011;4343;53.648;10.098;2024-01-11T13:46:08;21.93;;;13.07;;
8610;SDS011;4343;53.648;10.098;2024-01-11T13:48:34;22.10;;;13.33;;
8610;SDS011;4343;53.648;10.098;2024-01-11T13:51:00;24.33;;;14.07;;
8610;SDS011;4343;53.648;10.098;2024-01-11T13:53:28;22.97;;;12.93;;
8610;SDS011;4343;53.648;10.098;2024-01-11T13:55:54;21.17;;;12.87;;
8610;SDS011;4343;53.648;10.098;2024-01-11T13:58:20;23.90;;;13.10;;
8610;SDS011;4343;53.648;10.098;2024-01-11T14:00:46;20.03;;;12.80;;
8610;SDS011;4343;53.648;10.098;2024-01-11T14:03:12;28.23;;;13.83;;
8610;SDS011;4343;53.648;10.098;2024-01-11T14:05:37;24.63;;;14.60;;
8610;SDS011;4343;53.648;10.098;2024-01-11T14:08:03;25.63;;;14.37;;
